sensor_id;sensor_type;location;lat;lon;timestamp;pressure;altitude;pressure_sealevel;temperature;humidity
69214;BME280;56325;47.030;18.518;2023-04-06T00:01:57;100705.56;;;2.71;56.99
69214;BME280;56325;47.030;18.518;2023-04-06T00:04:33;100700.09;;;2.85;56.85
69214;BME280;56325;47.030;18.518;2023-04-06T00:07:09;100695.00;;;2.97;56.96
69214;BME280;56325;47.030;18.518;2023-04-06T00:09:43;100695.75;;;2.98;56.32
69214;BME280;56325;47.030;18.518;2023-04-06T00:12:18;100696.53;;;3.02;55.94
69214;BME280;56325;47.030;18.518;2023-04-06T00:14:53;100691.44;;;3.11;55.26
69214;BME280;56325;47.030;18.518;2023-04-06T00:17:27;100705.56;;;2.78;56.33
69214;BME280;56325;47.030;18.518;2023-04-06T00:20:02;100698.91;;;2.93;55.64
69214;BME280;56325;47.030;18.518;2023-04-06T00:22:38;100699.28;;;2.91;55.58
69214;BME280;56325;47.030;18.518;2023-04-06T00:25:13;100694.66;;;2.88;55.67
69214;BME280;56325;47.030;18.518;2023-04-06T00:27:48;100691.59;;;2.76;56.00
69214;BME280;56325;47.030;18.518;2023-04-06T00:30:23;100689.19;;;2.95;55.31
69214;BME280;56325;47.030;18.518;2023-04-06T00:32:57;100682.28;;;2.77;55.59
69214;BME280;56325;47.030;18.518;2023-04-06T00:35:32;100680.75;;;2.69;55.41
69214;BME280;56325;47.030;18.518;2023-04-06T00:38:08;100681.50;;;2.76;55.40
69214;BME280;56325;47.030;18.518;2023-04-06T00:40:44;100677.94;;;2.93;54.95
69214;BME280;56325;47.030;18.518;2023-04-06T00:43:18;100677.16;;;2.96;53.32
69214;BME280;56325;47.030;18.518;2023-04-06T00:45:53;100677.50;;;3.02;53.49
69214;BME280;56325;47.030;18.518;2023-04-06T00:48:28;100670.59;;;2.83;54.98
69214;BME280;56325;47.030;18.518;2023-04-06T00:51:05;100661.91;;;3.17;53.05
69214;BME280;56325;47.030;18.518;2023-04-06T00:53:41;100670.31;;;2.63;55.18
69214;BME280;56325;47.030;18.518;2023-04-06T00:56:16;100670.75;;;2.58;55.22
69214;BME280;56325;47.030;18.518;2023-04-06T00:58:52;100666.38;;;2.79;54.88
69214;BME280;56325;47.030;18.518;2023-04-06T01:01:29;100660.94;;;2.75;53.74
69214;BME280;56325;47.030;18.518;2023-04-06T01:04:06;100669.91;;;2.69;54.30
69214;BME280;56325;47.030;18.518;2023-04-06T01:06:43;100673.81;;;2.60;55.52
69214;BME280;56325;47.030;18.518;2023-04-06T01:09:19;100676.09;;;2.69;53.73
69214;BME280;56325;47.030;18.518;2023-04-06T01:11:58;100678.09;;;2.58;53.36
69214;BME280;56325;47.030;18.518;2023-04-06T01:14:34;100673.50;;;2.48;54.59
69214;BME280;56325;47.030;18.518;2023-04-06T01:17:09;100675.84;;;2.35;53.95
69214;BME280;56325;47.030;18.518;2023-04-06T01:19:44;100671.56;;;2.41;56.13
69214;BME280;56325;47.030;18.518;2023-04-06T01:22:25;100666.12;;;2.45;56.10
69214;BME280;56325;47.030;18.518;2023-04-06T01:24:59;100664.00;;;2.84;52.86
69214;BME280;56325;47.030;18.518;2023-04-06T01:27:35;100666.94;;;2.27;53.54
69214;BME280;56325;47.030;18.518;2023-04-06T01:30:10;100673.19;;;2.07;55.01
69214;BME280;56325;47.030;18.518;2023-04-06T01:32:46;100670.47;;;2.07;56.77
69214;BME280;56325;47.030;18.518;2023-04-06T01:35:21;100674.34;;;2.20;55.99
69214;BME280;56325;47.030;18.518;2023-04-06T01:37:58;100668.50;;;2.32;54.34
69214;BME280;56325;47.030;18.518;2023-04-06T01:40:33;100663.47;;;2.27;56.23
69214;BME280;56325;47.030;18.518;2023-04-06T01:43:08;100661.44;;;2.59;53.83
69214;BME280;56325;47.030;18.518;2023-04-06T01:45:44;100665.41;;;2.23;56.93
69214;BME280;56325;47.030;18.518;2023-04-06T01:48:19;100663.84;;;2.25;56.57
69214;BME280;56325;47.030;18.518;2023-04-06T01:50:54;100663.81;;;2.36;56.03
69214;BME280;56325;47.030;18.518;2023-04-06T01:53:31;100668.06;;;2.41;56.43
69214;BME280;56325;47.030;18.518;2023-04-06T01:56:06;100660.72;;;2.41;55.25
69214;BME280;56325;47.030;18.518;2023-04-06T01:58:42;100665.00;;;2.28;56.18
69214;BME280;56325;47.030;18.518;2023-04-06T02:01:17;100659.91;;;2.48;56.06
69214;BME280;56325;47.030;18.518;2023-04-06T02:03:52;100665.72;;;2.46;56.66
69214;BME280;56325;47.030;18.518;2023-04-06T02:06:27;100657.22;;;2.44;56.50
69214;BME280;56325;47.030;18.518;2023-04-06T02:09:03;100659.19;;;2.26;56.41
69214;BME280;56325;47.030;18.518;2023-04-06T02:11:38;100650.31;;;2.15;57.00
69214;BME280;56325;47.030;18.518;2023-04-06T02:14:13;100661.16;;;2.11;56.89
69214;BME280;56325;47.030;18.518;2023-04-06T02:16:48;100655.31;;;2.27;56.66
69214;BME280;56325;47.030;18.518;2023-04-06T02:19:23;100662.31;;;2.14;56.81
69214;BME280;56325;47.030;18.518;2023-04-06T02:21:59;100649.12;;;2.26;56.27
69214;BME280;56325;47.030;18.518;2023-04-06T02:24:35;100649.12;;;2.30;56.55
69214;BME280;56325;47.030;18.518;2023-04-06T02:27:10;100652.56;;;2.41;56.32
69214;BME280;56325;47.030;18.518;2023-04-06T02:29:44;100647.50;;;2.47;56.29
69214;BME280;56325;47.030;18.518;2023-04-06T02:32:19;100649.88;;;2.38;57.25
69214;BME280;56325;47.030;18.518;2023-04-06T02:34:54;100652.19;;;2.39;57.38
69214;BME280;56325;47.030;18.518;2023-04-06T02:37:29;100659.84;;;2.62;55.32
69214;BME280;56325;47.030;18.518;2023-04-06T02:40:07;100653.69;;;2.58;55.16
69214;BME280;56325;47.030;18.518;2023-04-06T02:42:43;100657.59;;;2.43;55.81
69214;BME280;56325;47.030;18.518;2023-04-06T02:45:17;100649.03;;;2.55;55.20
69214;BME280;56325;47.030;18.518;2023-04-06T02:47:53;100646.84;;;2.04;56.06
69214;BME280;56325;47.030;18.518;2023-04-06T02:50:28;100645.28;;;2.10;56.44
69214;BME280;56325;47.030;18.518;2023-04-06T02:53:03;100641.06;;;1.87;57.00
69214;BME280;56325;47.030;18.518;2023-04-06T02:55:39;100643.81;;;1.52;58.55
69214;BME280;56325;47.030;18.518;2023-04-06T02:58:14;100644.56;;;1.45;60.46
69214;BME280;56325;47.030;18.518;2023-04-06T03:00:49;100638.00;;;1.68;59.56
69214;BME280;56325;47.030;18.518;2023-04-06T03:03:24;100643.81;;;1.52;59.08
69214;BME280;56325;47.030;18.518;2023-04-06T03:06:00;100646.50;;;1.30;59.46
69214;BME280;56325;47.030;18.518;2023-04-06T03:08:35;100644.16;;;1.18;60.47
69214;BME280;56325;47.030;18.518;2023-04-06T03:11:10;100639.91;;;1.31;60.28
69214;BME280;56325;47.030;18.518;2023-04-06T03:13:46;100639.16;;;1.45;59.17
69214;BME280;56325;47.030;18.518;2023-04-06T03:16:20;100636.03;;;1.18;60.30
69214;BME280;56325;47.030;18.518;2023-04-06T03:18:56;100642.22;;;1.26;60.04
69214;BME280;56325;47.030;18.518;2023-04-06T03:21:30;100634.50;;;1.42;59.81
69214;BME280;56325;47.030;18.518;2023-04-06T03:24:06;100636.84;;;1.51;60.41
69214;BME280;56325;47.030;18.518;2023-04-06T03:26:42;100633.75;;;1.63;58.72
69214;BME280;56325;47.030;18.518;2023-04-06T03:29:17;100639.94;;;1.53;59.25
69214;BME280;56325;47.030;18.518;2023-04-06T03:31:51;100642.62;;;1.46;59.11
69214;BME280;56325;47.030;18.518;2023-04-06T03:34:26;100637.56;;;1.19;60.15
69214;BME280;56325;47.030;18.518;2023-04-06T03:37:01;100644.56;;;1.24;60.63
69214;BME280;56325;47.030;18.518;2023-04-06T03:39:44;100642.62;;;1.21;60.07
69214;BME280;56325;47.030;18.518;2023-04-06T03:42:21;100644.94;;;1.15;60.25
69214;BME280;56325;47.030;18.518;2023-04-06T03:44:56;100651.16;;;1.34;60.00
69214;BME280;56325;47.030;18.518;2023-04-06T03:47:30;100642.25;;;1.29;60.14
69214;BME280;56325;47.030;18.518;2023-04-06T03:50:06;100641.06;;;1.23;60.56
69214;BME280;56325;47.030;18.518;2023-04-06T03:52:41;100649.16;;;1.09;60.20
69214;BME280;56325;47.030;18.518;2023-04-06T03:55:16;100643.75;;;1.16;61.51
69214;BME280;56325;47.030;18.518;2023-04-06T03:57:52;100644.56;;;1.27;60.72
69214;BME280;56325;47.030;18.518;2023-04-06T04:00:29;100640.69;;;1.36;60.09
69214;BME280;56325;47.030;18.518;2023-04-06T04:03:04;100649.19;;;1.13;61.10
69214;BME280;56325;47.030;18.518;2023-04-06T04:05:38;100643.78;;;1.30;60.86
69214;BME280;56325;47.030;18.518;2023-04-06T04:08:13;100643.41;;;1.46;60.12
69214;BME280;56325;47.030;18.518;2023-04-06T04:10:48;100643.41;;;1.43;59.94
69214;BME280;56325;47.030;18.518;2023-04-06T04:13:25;100648.03;;;1.28;59.70
69214;BME280;56325;47.030;18.518;2023-04-06T04:16:01;100654.97;;;1.15;60.53
69214;BME280;56325;47.030;18.518;2023-04-06T04:18:35;100649.81;;;0.60;62.47
69214;BME280;56325;47.030;18.518;2023-04-06T04:21:11;100647.56;;;0.80;62.65
69214;BME280;56325;47.030;18.518;2023-04-06T04:23:46;100654.94;;;1.01;61.42
69214;BME280;56325;47.030;18.518;2023-04-06T04:26:20;100656.88;;;0.86;62.25
69214;BME280;56325;47.030;18.518;2023-04-06T04:28:56;100656.09;;;0.85;61.82
69214;BME280;56325;47.030;18.518;2023-04-06T04:31:31;100642.91;;;0.73;62.45
69214;BME280;56325;47.030;18.518;2023-04-06T04:34:06;100658.41;;;0.90;61.22
69214;BME280;56325;47.030;18.518;2023-04-06T04:36:41;100662.19;;;0.57;62.15
69214;BME280;56325;47.030;18.518;2023-04-06T04:39:16;100639.06;;;6.78;100.00
69214;BME280;56325;47.030;18.518;2023-04-06T04:41:52;100658.13;;;4.00;79.54
69214;BME280;56325;47.030;18.518;2023-04-06T04:44:28;100660.37;;;2.21;67.30
69214;BME280;56325;47.030;18.518;2023-04-06T04:47:03;100658.47;;;1.93;63.42
69214;BME280;56325;47.030;18.518;2023-04-06T04:49:41;100654.22;;;1.89;62.18
69214;BME280;56325;47.030;18.518;2023-04-06T04:52:16;100664.72;;;1.69;61.53
69214;BME280;56325;47.030;18.518;2023-04-06T04:54:52;100653.09;;;1.61;61.78
69214;BME280;56325;47.030;18.518;2023-04-06T04:57:27;100665.47;;;1.52;61.74
69214;BME280;56325;47.030;18.518;2023-04-06T05:00:05;100668.19;;;1.41;61.83
69214;BME280;56325;47.030;18.518;2023-04-06T05:02:41;100667.81;;;1.43;61.82
69214;BME280;56325;47.030;18.518;2023-04-06T05:05:16;100640.94;;;7.34;98.90
69214;BME280;56325;47.030;18.518;2023-04-06T05:07:50;100638.31;;;8.91;88.61
69214;BME280;56325;47.030;18.518;2023-04-06T05:10:25;100632.34;;;9.56;78.98
69214;BME280;56325;47.030;18.518;2023-04-06T05:13:00;100648.09;;;7.28;54.98
69214;BME280;56325;47.030;18.518;2023-04-06T05:15:36;100656.88;;;5.80;54.98
69214;BME280;56325;47.030;18.518;2023-04-06T05:18:14;100657.91;;;4.86;54.75
69214;BME280;56325;47.030;18.518;2023-04-06T05:20:50;100640.66;;;7.28;83.58
69214;BME280;56325;47.030;18.518;2023-04-06T05:23:25;100647.53;;;6.84;66.52
69214;BME280;56325;47.030;18.518;2023-04-06T05:26:00;100661.00;;;4.88;54.72
69214;BME280;56325;47.030;18.518;2023-04-06T05:28:35;100654.19;;;4.05;55.61
69214;BME280;56325;47.030;18.518;2023-04-06T05:31:12;100656.47;;;3.17;56.28
69214;BME280;56325;47.030;18.518;2023-04-06T05:33:48;100659.75;;;2.80;57.01
69214;BME280;56325;47.030;18.518;2023-04-06T05:36:23;100659.78;;;2.73;57.77
69214;BME280;56325;47.030;18.518;2023-04-06T05:38:58;100648.13;;;2.79;57.93
69214;BME280;56325;47.030;18.518;2023-04-06T05:41:33;100654.13;;;2.42;57.74
69214;BME280;56325;47.030;18.518;2023-04-06T05:44:08;100656.06;;;2.42;57.47
69214;BME280;56325;47.030;18.518;2023-04-06T05:46:45;100649.56;;;1.89;58.68
69214;BME280;56325;47.030;18.518;2023-04-06T05:49:20;100646.09;;;1.78;59.71
69214;BME280;56325;47.030;18.518;2023-04-06T05:51:54;100637.06;;;5.53;83.00
69214;BME280;56325;47.030;18.518;2023-04-06T05:54:29;100637.37;;;3.27;59.30
69214;BME280;56325;47.030;18.518;2023-04-06T05:57:04;100620.53;;;2.88;60.87
69214;BME280;56325;47.030;18.518;2023-04-06T05:59:39;100635.00;;;2.63;60.79
69214;BME280;56325;47.030;18.518;2023-04-06T06:03:01;100629.63;;;2.56;63.15
69214;BME280;56325;47.030;18.518;2023-04-06T06:05:38;100629.63;;;2.56;63.15
69214;BME280;56325;47.030;18.518;2023-04-06T06:08:13;100633.69;;;1.95;65.05
69214;BME280;56325;47.030;18.518;2023-04-06T06:10:48;100628.94;;;2.31;64.11
69214;BME280;56325;47.030;18.518;2023-04-06T06:13:25;100619.72;;;2.00;63.39
69214;BME280;56325;47.030;18.518;2023-04-06T06:16:00;100617.41;;;1.98;62.72
69214;BME280;56325;47.030;18.518;2023-04-06T06:18:39;100615.03;;;2.22;62.01
69214;BME280;56325;47.030;18.518;2023-04-06T06:21:14;100615.88;;;1.83;62.41
69214;BME280;56325;47.030;18.518;2023-04-06T06:23:50;100618.97;;;1.85;61.52
69214;BME280;56325;47.030;18.518;2023-04-06T06:26:27;100608.91;;;1.75;61.87
69214;BME280;56325;47.030;18.518;2023-04-06T06:29:02;100612.00;;;1.77;62.26
69214;BME280;56325;47.030;18.518;2023-04-06T06:31:39;100605.75;;;2.05;62.32
69214;BME280;56325;47.030;18.518;2023-04-06T06:34:15;100601.06;;;2.20;61.80
69214;BME280;56325;47.030;18.518;2023-04-06T06:36:49;100592.91;;;2.27;60.08
69214;BME280;56325;47.030;18.518;2023-04-06T06:39:25;100587.69;;;2.61;59.91
69214;BME280;56325;47.030;18.518;2023-04-06T06:41:59;100589.22;;;2.66;59.26
69214;BME280;56325;47.030;18.518;2023-04-06T06:44:45;100589.44;;;2.26;59.48
69214;BME280;56325;47.030;18.518;2023-04-06T06:47:20;100585.41;;;2.59;59.32
69214;BME280;56325;47.030;18.518;2023-04-06T06:49:56;100593.78;;;2.83;58.66
69214;BME280;56325;47.030;18.518;2023-04-06T06:52:31;100587.19;;;2.84;57.95
69214;BME280;56325;47.030;18.518;2023-04-06T06:55:06;100596.41;;;3.01;57.23
69214;BME280;56325;47.030;18.518;2023-04-06T06:57:41;100588.22;;;3.04;56.70
69214;BME280;56325;47.030;18.518;2023-04-06T07:00:16;100595.56;;;3.11;56.34
69214;BME280;56325;47.030;18.518;2023-04-06T07:02:51;100588.59;;;3.06;56.12
69214;BME280;56325;47.030;18.518;2023-04-06T07:05:27;100587.00;;;3.12;56.06
69214;BME280;56325;47.030;18.518;2023-04-06T07:08:02;100588.09;;;3.25;55.16
69214;BME280;56325;47.030;18.518;2023-04-06T07:10:37;100585.06;;;3.57;54.66
69214;BME280;56325;47.030;18.518;2023-04-06T07:13:12;100580.50;;;3.88;65.99
69214;BME280;56325;47.030;18.518;2023-04-06T07:15:51;100574.84;;;6.11;63.61
69214;BME280;56325;47.030;18.518;2023-04-06T07:18:26;100558.09;;;9.12;79.43
69214;BME280;56325;47.030;18.518;2023-04-06T07:21:02;100571.41;;;5.64;50.66
69214;BME280;56325;47.030;18.518;2023-04-06T07:23:37;100568.78;;;4.86;52.23
69214;BME280;56325;47.030;18.518;2023-04-06T07:26:12;100573.44;;;4.59;50.87
69214;BME280;56325;47.030;18.518;2023-04-06T07:28:46;100579.09;;;4.41;52.32
69214;BME280;56325;47.030;18.518;2023-04-06T07:31:22;100580.03;;;4.31;52.06
69214;BME280;56325;47.030;18.518;2023-04-06T07:33:58;100587.09;;;4.25;50.73
69214;BME280;56325;47.030;18.518;2023-04-06T07:36:33;100577.47;;;4.17;52.03
69214;BME280;56325;47.030;18.518;2023-04-06T07:39:09;100579.09;;;4.41;51.29
69214;BME280;56325;47.030;18.518;2023-04-06T07:41:44;100563.50;;;4.45;51.24
69214;BME280;56325;47.030;18.518;2023-04-06T07:44:19;100562.63;;;4.52;51.47
69214;BME280;56325;47.030;18.518;2023-04-06T07:46:53;100546.09;;;4.66;50.12
69214;BME280;56325;47.030;18.518;2023-04-06T07:49:28;100555.94;;;4.87;51.13
69214;BME280;56325;47.030;18.518;2023-04-06T07:52:05;100546.41;;;4.72;50.34
69214;BME280;56325;47.030;18.518;2023-04-06T07:54:40;100551.91;;;4.95;49.41
69214;BME280;56325;47.030;18.518;2023-04-06T07:57:15;100544.31;;;4.83;48.31
69214;BME280;56325;47.030;18.518;2023-04-06T07:59:50;100544.75;;;5.05;49.06
69214;BME280;56325;47.030;18.518;2023-04-06T08:02:25;100540.12;;;5.02;49.23
69214;BME280;56325;47.030;18.518;2023-04-06T08:04:59;100536.94;;;5.07;49.33
69214;BME280;56325;47.030;18.518;2023-04-06T08:07:35;100545.53;;;5.28;49.16
69214;BME280;56325;47.030;18.518;2023-04-06T08:10:11;100540.31;;;5.14;48.46
69214;BME280;56325;47.030;18.518;2023-04-06T08:12:45;100541.16;;;5.78;52.73
69214;BME280;56325;47.030;18.518;2023-04-06T08:15:20;100536.16;;;6.88;48.39
69214;BME280;56325;47.030;18.518;2023-04-06T08:17:54;100538.97;;;5.93;46.18
69214;BME280;56325;47.030;18.518;2023-04-06T08:20:32;100534.09;;;5.80;46.74
69214;BME280;56325;47.030;18.518;2023-04-06T08:23:08;100539.81;;;5.66;46.09
69214;BME280;56325;47.030;18.518;2023-04-06T08:25:44;100526.81;;;5.74;47.90
69214;BME280;56325;47.030;18.518;2023-04-06T08:28:18;100531.13;;;5.95;46.77
69214;BME280;56325;47.030;18.518;2023-04-06T08:30:53;100528.19;;;6.05;46.73
69214;BME280;56325;47.030;18.518;2023-04-06T08:33:28;100528.28;;;6.18;47.19
69214;BME280;56325;47.030;18.518;2023-04-06T08:36:10;100522.63;;;6.29;45.94
69214;BME280;56325;47.030;18.518;2023-04-06T08:38:46;100511.75;;;6.25;46.87
69214;BME280;56325;47.030;18.518;2023-04-06T08:41:22;100517.38;;;6.18;46.34
69214;BME280;56325;47.030;18.518;2023-04-06T08:43:58;100500.88;;;6.41;45.16
69214;BME280;56325;47.030;18.518;2023-04-06T08:46:33;100505.19;;;6.58;45.93
69214;BME280;56325;47.030;18.518;2023-04-06T08:49:08;100504.97;;;6.85;45.50
69214;BME280;56325;47.030;18.518;2023-04-06T08:51:43;100503.16;;;6.79;45.57
69214;BME280;56325;47.030;18.518;2023-04-06T08:54:19;100501.63;;;6.78;43.04
69214;BME280;56325;47.030;18.518;2023-04-06T08:56:54;100493.06;;;7.08;44.06
69214;BME280;56325;47.030;18.518;2023-04-06T08:59:29;100491.34;;;7.14;42.31
69214;BME280;56325;47.030;18.518;2023-04-06T09:02:06;100481.09;;;7.18;41.47
69214;BME280;56325;47.030;18.518;2023-04-06T09:04:43;100500.69;;;6.84;42.24
69214;BME280;56325;47.030;18.518;2023-04-06T09:07:19;100497.87;;;6.72;41.52
69214;BME280;56325;47.030;18.518;2023-04-06T09:09:55;100497.03;;;6.91;41.63
69214;BME280;56325;47.030;18.518;2023-04-06T09:12:31;100499.62;;;6.95;41.90
69214;BME280;56325;47.030;18.518;2023-04-06T09:15:06;100490.53;;;6.85;42.57
69214;BME280;56325;47.030;18.518;2023-04-06T09:17:53;100480.69;;;6.71;42.25
69214;BME280;56325;47.030;18.518;2023-04-06T09:20:28;100481.47;;;6.88;42.39
69214;BME280;56325;47.030;18.518;2023-04-06T09:23:03;100481.63;;;6.81;42.21
69214;BME280;56325;47.030;18.518;2023-04-06T09:25:39;100468.50;;;6.92;41.43
69214;BME280;56325;47.030;18.518;2023-04-06T09:28:13;100469.12;;;6.96;40.93
69214;BME280;56325;47.030;18.518;2023-04-06T09:30:48;100464.66;;;7.64;59.19
69214;BME280;56325;47.030;18.518;2023-04-06T09:33:23;100451.88;;;8.53;50.05
69214;BME280;56325;47.030;18.518;2023-04-06T09:35:58;100459.41;;;8.87;43.35
69214;BME280;56325;47.030;18.518;2023-04-06T09:38:33;100463.38;;;7.68;39.78
69214;BME280;56325;47.030;18.518;2023-04-06T09:41:09;100451.66;;;7.80;40.40
69214;BME280;56325;47.030;18.518;2023-04-06T09:43:43;100458.09;;;7.61;40.88
69214;BME280;56325;47.030;18.518;2023-04-06T09:46:21;100456.25;;;7.71;41.92
69214;BME280;56325;47.030;18.518;2023-04-06T09:48:56;100445.97;;;7.87;41.80
69214;BME280;56325;47.030;18.518;2023-04-06T09:51:36;100446.78;;;8.01;40.55
69214;BME280;56325;47.030;18.518;2023-04-06T09:54:15;100445.44;;;7.93;41.87
69214;BME280;56325;47.030;18.518;2023-04-06T09:56:58;100448.84;;;7.97;41.73
69214;BME280;56325;47.030;18.518;2023-04-06T09:59:39;100441.75;;;8.12;41.10
69214;BME280;56325;47.030;18.518;2023-04-06T10:02:24;100436.50;;;8.05;41.50
69214;BME280;56325;47.030;18.518;2023-04-06T10:05:07;100438.47;;;8.17;39.83
69214;BME280;56325;47.030;18.518;2023-04-06T10:07:44;100436.69;;;7.98;40.00
69214;BME280;56325;47.030;18.518;2023-04-06T10:10:33;100430.66;;;7.90;40.14
69214;BME280;56325;47.030;18.518;2023-04-06T10:13:10;100424.84;;;7.88;40.32
69214;BME280;56325;47.030;18.518;2023-04-06T10:15:45;100426.28;;;7.80;38.95
69214;BME280;56325;47.030;18.518;2023-04-06T10:18:20;100422.44;;;7.77;39.30
69214;BME280;56325;47.030;18.518;2023-04-06T10:20:58;100415.91;;;8.13;39.34
69214;BME280;56325;47.030;18.518;2023-04-06T10:23:36;100418.31;;;8.11;39.51
69214;BME280;56325;47.030;18.518;2023-04-06T10:26:15;100412.16;;;8.07;40.33
69214;BME280;56325;47.030;18.518;2023-04-06T10:28:54;100408.59;;;8.35;39.57
69214;BME280;56325;47.030;18.518;2023-04-06T10:31:29;100402.78;;;8.33;39.32
69214;BME280;56325;47.030;18.518;2023-04-06T10:34:05;100416.06;;;8.82;40.83
69214;BME280;56325;47.030;18.518;2023-04-06T10:36:43;100395.91;;;8.76;39.64
69214;BME280;56325;47.030;18.518;2023-04-06T10:39:24;100390.28;;;8.58;38.83
69214;BME280;56325;47.030;18.518;2023-04-06T10:42:06;100390.53;;;8.72;38.70
69214;BME280;56325;47.030;18.518;2023-04-06T10:44:45;100391.53;;;8.78;38.18
69214;BME280;56325;47.030;18.518;2023-04-06T10:47:26;100382.72;;;9.18;39.35
69214;BME280;56325;47.030;18.518;2023-04-06T10:50:00;100384.66;;;9.30;38.65
69214;BME280;56325;47.030;18.518;2023-04-06T10:52:35;100388.06;;;9.00;38.55
69214;BME280;56325;47.030;18.518;2023-04-06T10:55:10;100377.22;;;8.96;37.91
69214;BME280;56325;47.030;18.518;2023-04-06T10:57:46;100379.84;;;9.00;38.00
69214;BME280;56325;47.030;18.518;2023-04-06T11:00:22;100371.16;;;9.01;37.62
69214;BME280;56325;47.030;18.518;2023-04-06T11:03:05;100368.66;;;8.94;37.65
69214;BME280;56325;47.030;18.518;2023-04-06T11:05:43;100370.88;;;8.86;39.12
69214;BME280;56325;47.030;18.518;2023-04-06T11:08:25;100366.31;;;8.71;38.07
69214;BME280;56325;47.030;18.518;2023-04-06T11:11:07;100369.19;;;9.02;39.23
69214;BME280;56325;47.030;18.518;2023-04-06T11:13:45;100359.81;;;9.12;38.29
69214;BME280;56325;47.030;18.518;2023-04-06T11:16:22;100352.34;;;9.12;37.57
69214;BME280;56325;47.030;18.518;2023-04-06T11:18:59;100354.00;;;9.10;37.40
69214;BME280;56325;47.030;18.518;2023-04-06T11:21:38;100367.38;;;8.86;37.69
69214;BME280;56325;47.030;18.518;2023-04-06T11:24:15;100362.44;;;8.46;36.52
69214;BME280;56325;47.030;18.518;2023-04-06T11:26:54;100361.12;;;8.38;37.29
69214;BME280;56325;47.030;18.518;2023-04-06T11:29:30;100353.78;;;8.48;37.65
69214;BME280;56325;47.030;18.518;2023-04-06T11:32:06;100350.50;;;8.75;37.24
69214;BME280;56325;47.030;18.518;2023-04-06T11:34:41;100354.47;;;8.74;36.88
69214;BME280;56325;47.030;18.518;2023-04-06T11:37:16;100347.56;;;9.04;36.18
69214;BME280;56325;47.030;18.518;2023-04-06T11:39:51;100357.03;;;8.90;36.69
69214;BME280;56325;47.030;18.518;2023-04-06T11:42:27;100353.38;;;9.28;37.73
69214;BME280;56325;47.030;18.518;2023-04-06T11:45:03;100355.03;;;9.25;36.09
69214;BME280;56325;47.030;18.518;2023-04-06T11:47:39;100343.38;;;9.34;34.45
69214;BME280;56325;47.030;18.518;2023-04-06T11:50:16;100348.59;;;9.41;35.98
69214;BME280;56325;47.030;18.518;2023-04-06T11:52:58;100356.44;;;9.51;34.52
69214;BME280;56325;47.030;18.518;2023-04-06T11:55:37;100350.62;;;9.28;34.25
69214;BME280;56325;47.030;18.518;2023-04-06T11:58:12;100343.81;;;9.10;35.23
69214;BME280;56325;47.030;18.518;2023-04-06T12:00:48;100359.56;;;9.19;36.08
69214;BME280;56325;47.030;18.518;2023-04-06T12:03:24;100345.78;;;9.10;36.07
69214;BME280;56325;47.030;18.518;2023-04-06T12:05:59;100347.62;;;9.35;35.56
69214;BME280;56325;47.030;18.518;2023-04-06T12:08:34;100344.06;;;9.47;39.47
69214;BME280;56325;47.030;18.518;2023-04-06T12:11:08;100348.87;;;9.65;34.94
69214;BME280;56325;47.030;18.518;2023-04-06T12:13:43;100335.59;;;9.94;34.66
69214;BME280;56325;47.030;18.518;2023-04-06T12:16:17;100351.22;;;10.83;41.12
69214;BME280;56325;47.030;18.518;2023-04-06T12:18:54;100337.44;;;10.46;33.82
69214;BME280;56325;47.030;18.518;2023-04-06T12:21:29;100340.44;;;10.21;33.69
69214;BME280;56325;47.030;18.518;2023-04-06T12:24:05;100327.88;;;10.11;34.17
69214;BME280;56325;47.030;18.518;2023-04-06T12:26:42;100325.25;;;10.07;34.44
69214;BME280;56325;47.030;18.518;2023-04-06T12:29:19;100308.19;;;10.12;34.07
69214;BME280;56325;47.030;18.518;2023-04-06T12:31:56;100327.63;;;10.27;34.59
69214;BME280;56325;47.030;18.518;2023-04-06T12:34:32;100310.88;;;10.52;33.40
69214;BME280;56325;47.030;18.518;2023-04-06T12:37:08;100317.72;;;10.48;33.43
69214;BME280;56325;47.030;18.518;2023-04-06T12:39:51;100307.84;;;10.96;35.82
69214;BME280;56325;47.030;18.518;2023-04-06T12:42:26;100302.91;;;11.70;41.57
69214;BME280;56325;47.030;18.518;2023-04-06T12:45:01;100297.28;;;10.76;33.56
69214;BME280;56325;47.030;18.518;2023-04-06T12:47:35;100311.19;;;11.00;34.57
69214;BME280;56325;47.030;18.518;2023-04-06T12:50:12;100320.97;;;10.74;33.65
69214;BME280;56325;47.030;18.518;2023-04-06T12:52:47;100305.09;;;10.01;34.50
69214;BME280;56325;47.030;18.518;2023-04-06T12:55:22;100305.78;;;10.24;35.16
69214;BME280;56325;47.030;18.518;2023-04-06T12:57:56;100298.34;;;10.33;34.65
69214;BME280;56325;47.030;18.518;2023-04-06T13:00:33;100303.31;;;10.16;36.43
69214;BME280;56325;47.030;18.518;2023-04-06T13:03:08;100308.09;;;10.25;35.91
69214;BME280;56325;47.030;18.518;2023-04-06T13:05:45;100308.47;;;10.05;35.15
69214;BME280;56325;47.030;18.518;2023-04-06T13:08:20;100298.50;;;10.48;35.36
69214;BME280;56325;47.030;18.518;2023-04-06T13:10:55;100300.19;;;10.36;35.85
69214;BME280;56325;47.030;18.518;2023-04-06T13:13:29;100303.06;;;9.93;36.04
69214;BME280;56325;47.030;18.518;2023-04-06T13:16:06;100303.19;;;10.20;36.31
69214;BME280;56325;47.030;18.518;2023-04-06T13:18:41;100304.50;;;10.06;35.28
69214;BME280;56325;47.030;18.518;2023-04-06T13:21:17;100308.84;;;9.54;35.32
69214;BME280;56325;47.030;18.518;2023-04-06T13:23:53;100301.94;;;9.19;36.59
69214;BME280;56325;47.030;18.518;2023-04-06T13:26:28;100308.97;;;9.20;36.93
69214;BME280;56325;47.030;18.518;2023-04-06T13:29:02;100306.81;;;9.15;36.04
69214;BME280;56325;47.030;18.518;2023-04-06T13:31:37;100291.37;;;9.08;36.47
69214;BME280;56325;47.030;18.518;2023-04-06T13:34:12;100296.28;;;9.13;36.61
69214;BME280;56325;47.030;18.518;2023-04-06T13:36:48;100309.22;;;9.35;35.62